sensor_id;sensor_type;location;lat;lon;timestamp;P1;durP1;ratioP1;P2;durP2;ratioP2
69260;SDS011;56378;52.404;20.816;2022-10-24T00:00:24;27.05;;;14.63;;
69260;SDS011;56378;52.404;20.816;2022-10-24T00:02:50;29.07;;;15.20;;
69260;SDS011;56378;52.404;20.816;2022-10-24T00:05:16;33.28;;;15.68;;
69260;SDS011;56378;52.404;20.816;2022-10-24T00:07:42;33.83;;;15.35;;
69260;SDS011;56378;52.404;20.816;2022-10-24T00:10:10;29.70;;;15.40;;
69260;SDS011;56378;52.404;20.816;2022-10-24T00:12:36;26.98;;;14.25;;
69260;SDS011;56378;52.404;20.816;2022-10-24T00:15:03;30.95;;;15.02;;
69260;SDS011;56378;52.404;20.816;2022-10-24T00:17:30;31.20;;;15.37;;
69260;SDS011;56378;52.404;20.816;2022-10-24T00:19:55;30.45;;;15.15;;
69260;SDS011;56378;52.404;20.816;2022-10-24T00:22:23;31.27;;;16.27;;
69260;SDS011;56378;52.404;20.816;2022-10-24T00:24:48;32.90;;;16.83;;
69260;SDS011;56378;52.404;20.816;2022-10-24T00:27:14;35.50;;;17.10;;
69260;SDS011;56378;52.404;20.816;2022-10-24T00:29:40;37.42;;;17.25;;
69260;SDS011;56378;52.404;20.816;2022-10-24T00:32:06;34.90;;;17.40;;
69260;SDS011;56378;52.404;20.816;2022-10-24T00:34:31;32.90;;;17.23;;
69260;SDS011;56378;52.404;20.816;2022-10-24T00:36:57;31.37;;;15.90;;
69260;SDS011;56378;52.404;20.816;2022-10-24T00:39:23;37.50;;;17.95;;
69260;SDS011;56378;52.404;20.816;2022-10-24T00:41:48;39.07;;;19.23;;
69260;SDS011;56378;52.404;20.816;2022-10-24T00:44:16;33.25;;;16.80;;
69260;SDS011;56378;52.404;20.816;2022-10-24T00:49:49;35.25;;;16.65;;
69260;SDS011;56378;52.404;20.816;2022-10-24T00:52:19;33.10;;;16.70;;
69260;SDS011;56378;52.404;20.816;2022-10-24T00:54:48;34.10;;;17.35;;
69260;SDS011;56378;52.404;20.816;2022-10-24T00:57:24;33.33;;;16.55;;
69260;SDS011;56378;52.404;20.816;2022-10-24T01:00:12;34.03;;;17.23;;
69260;SDS011;56378;52.404;20.816;2022-10-24T01:02:41;33.78;;;17.27;;
69260;SDS011;56378;52.404;20.816;2022-10-24T01:05:07;31.48;;;16.85;;
69260;SDS011;56378;52.404;20.816;2022-10-24T01:20:55;35.85;;;18.15;;
69260;SDS011;56378;52.404;20.816;2022-10-24T01:28:44;34.05;;;16.83;;
69260;SDS011;56378;52.404;20.816;2022-10-24T01:31:26;36.75;;;17.58;;
69260;SDS011;56378;52.404;20.816;2022-10-24T01:33:58;37.28;;;17.60;;
69260;SDS011;56378;52.404;20.816;2022-10-24T01:36:38;30.45;;;15.60;;
69260;SDS011;56378;52.404;20.816;2022-10-24T01:39:14;32.90;;;17.00;;
69260;SDS011;56378;52.404;20.816;2022-10-24T01:41:43;33.45;;;16.92;;
69260;SDS011;56378;52.404;20.816;2022-10-24T01:44:15;33.42;;;16.25;;
69260;SDS011;56378;52.404;20.816;2022-10-24T01:46:51;30.67;;;15.88;;
69260;SDS011;56378;52.404;20.816;2022-10-24T01:49:25;32.17;;;16.20;;
69260;SDS011;56378;52.404;20.816;2022-10-24T01:51:56;30.97;;;14.87;;
69260;SDS011;56378;52.404;20.816;2022-10-24T01:54:25;28.67;;;15.07;;
69260;SDS011;56378;52.404;20.816;2022-10-24T01:56:52;31.15;;;16.17;;
69260;SDS011;56378;52.404;20.816;2022-10-24T02:01:57;32.80;;;14.73;;
69260;SDS011;56378;52.404;20.816;2022-10-24T02:04:34;28.15;;;14.20;;
69260;SDS011;56378;52.404;20.816;2022-10-24T02:07:05;26.83;;;13.88;;
69260;SDS011;56378;52.404;20.816;2022-10-24T02:09:34;25.38;;;13.80;;
69260;SDS011;56378;52.404;20.816;2022-10-24T02:12:01;26.03;;;13.90;;
69260;SDS011;56378;52.404;20.816;2022-10-24T02:14:35;30.42;;;14.82;;
69260;SDS011;56378;52.404;20.816;2022-10-24T02:17:14;30.38;;;15.35;;
69260;SDS011;56378;52.404;20.816;2022-10-24T02:19:41;30.83;;;15.80;;
69260;SDS011;56378;52.404;20.816;2022-10-24T02:25:23;33.20;;;14.97;;
69260;SDS011;56378;52.404;20.816;2022-10-24T02:30:11;36.83;;;16.77;;
69260;SDS011;56378;52.404;20.816;2022-10-24T02:32:48;35.38;;;18.20;;
69260;SDS011;56378;52.404;20.816;2022-10-24T02:35:17;32.50;;;17.38;;
69260;SDS011;56378;52.404;20.816;2022-10-24T02:37:48;38.57;;;18.27;;
69260;SDS011;56378;52.404;20.816;2022-10-24T02:40:18;37.60;;;18.77;;
69260;SDS011;56378;52.404;20.816;2022-10-24T02:42:46;39.30;;;19.17;;
69260;SDS011;56378;52.404;20.816;2022-10-24T02:45:15;41.28;;;18.95;;
69260;SDS011;56378;52.404;20.816;2022-10-24T02:47:42;30.90;;;16.73;;
69260;SDS011;56378;52.404;20.816;2022-10-24T02:50:10;32.07;;;16.70;;
69260;SDS011;56378;52.404;20.816;2022-10-24T02:52:37;37.97;;;16.52;;
69260;SDS011;56378;52.404;20.816;2022-10-24T02:55:03;35.92;;;18.25;;
69260;SDS011;56378;52.404;20.816;2022-10-24T02:57:29;34.03;;;18.58;;
69260;SDS011;56378;52.404;20.816;2022-10-24T02:59:55;36.33;;;18.20;;
69260;SDS011;56378;52.404;20.816;2022-10-24T03:02:21;36.63;;;19.33;;
69260;SDS011;56378;52.404;20.816;2022-10-24T03:04:47;47.17;;;18.73;;
69260;SDS011;56378;52.404;20.816;2022-10-24T03:07:13;35.87;;;17.70;;
69260;SDS011;56378;52.404;20.816;2022-10-24T03:09:39;33.20;;;16.95;;
69260;SDS011;56378;52.404;20.816;2022-10-24T03:12:05;24.70;;;14.73;;
69260;SDS011;56378;52.404;20.816;2022-10-24T03:14:31;31.55;;;16.15;;
69260;SDS011;56378;52.404;20.816;2022-10-24T03:16:56;35.53;;;17.97;;
69260;SDS011;56378;52.404;20.816;2022-10-24T03:19:22;37.67;;;19.30;;
69260;SDS011;56378;52.404;20.816;2022-10-24T03:21:48;50.63;;;18.95;;
69260;SDS011;56378;52.404;20.816;2022-10-24T03:24:15;36.00;;;19.13;;
69260;SDS011;56378;52.404;20.816;2022-10-24T03:26:41;35.28;;;19.20;;
69260;SDS011;56378;52.404;20.816;2022-10-24T03:29:09;45.42;;;20.45;;
69260;SDS011;56378;52.404;20.816;2022-10-24T03:31:38;40.78;;;20.38;;
69260;SDS011;56378;52.404;20.816;2022-10-24T03:34:04;44.70;;;21.02;;
69260;SDS011;56378;52.404;20.816;2022-10-24T03:36:30;38.63;;;19.03;;
69260;SDS011;56378;52.404;20.816;2022-10-24T03:38:56;36.72;;;19.38;;
69260;SDS011;56378;52.404;20.816;2022-10-24T03:41:22;37.70;;;18.70;;
69260;SDS011;56378;52.404;20.816;2022-10-24T03:43:48;35.10;;;19.00;;
69260;SDS011;56378;52.404;20.816;2022-10-24T03:46:14;40.67;;;20.83;;
69260;SDS011;56378;52.404;20.816;2022-10-24T03:48:39;39.80;;;20.03;;
69260;SDS011;56378;52.404;20.816;2022-10-24T03:51:05;38.30;;;20.73;;
69260;SDS011;56378;52.404;20.816;2022-10-24T03:53:34;36.23;;;19.27;;
69260;SDS011;56378;52.404;20.816;2022-10-24T03:55:59;35.13;;;18.38;;
69260;SDS011;56378;52.404;20.816;2022-10-24T03:58:25;33.67;;;18.63;;
69260;SDS011;56378;52.404;20.816;2022-10-24T04:00:51;34.43;;;18.73;;
69260;SDS011;56378;52.404;20.816;2022-10-24T04:03:17;37.72;;;19.42;;
69260;SDS011;56378;52.404;20.816;2022-10-24T04:05:44;35.97;;;19.63;;
69260;SDS011;56378;52.404;20.816;2022-10-24T04:08:10;35.17;;;19.60;;
69260;SDS011;56378;52.404;20.816;2022-10-24T04:10:35;33.78;;;18.77;;
69260;SDS011;56378;52.404;20.816;2022-10-24T04:13:01;35.60;;;19.27;;
69260;SDS011;56378;52.404;20.816;2022-10-24T04:15:27;39.65;;;19.25;;
69260;SDS011;56378;52.404;20.816;2022-10-24T04:17:52;33.90;;;18.93;;
69260;SDS011;56378;52.404;20.816;2022-10-24T04:20:18;36.08;;;18.70;;
69260;SDS011;56378;52.404;20.816;2022-10-24T04:22:46;35.92;;;18.85;;
69260;SDS011;56378;52.404;20.816;2022-10-24T04:25:12;38.37;;;19.57;;
69260;SDS011;56378;52.404;20.816;2022-10-24T04:27:37;34.03;;;18.85;;
69260;SDS011;56378;52.404;20.816;2022-10-24T04:30:08;37.30;;;18.43;;
69260;SDS011;56378;52.404;20.816;2022-10-24T04:32:35;38.83;;;19.17;;
69260;SDS011;56378;52.404;20.816;2022-10-24T04:35:01;35.35;;;18.52;;
69260;SDS011;56378;52.404;20.816;2022-10-24T04:37:28;35.67;;;19.53;;
69260;SDS011;56378;52.404;20.816;2022-10-24T04:39:54;32.97;;;18.23;;
69260;SDS011;56378;52.404;20.816;2022-10-24T04:42:20;35.03;;;19.30;;
69260;SDS011;56378;52.404;20.816;2022-10-24T04:44:46;31.95;;;17.67;;
69260;SDS011;56378;52.404;20.816;2022-10-24T04:47:12;33.10;;;18.10;;
69260;SDS011;56378;52.404;20.816;2022-10-24T04:49:38;37.03;;;20.37;;
69260;SDS011;56378;52.404;20.816;2022-10-24T04:52:04;33.10;;;17.95;;
69260;SDS011;56378;52.404;20.816;2022-10-24T04:54:30;32.77;;;18.33;;
69260;SDS011;56378;52.404;20.816;2022-10-24T04:56:56;34.83;;;18.15;;
69260;SDS011;56378;52.404;20.816;2022-10-24T04:59:21;33.33;;;18.02;;
69260;SDS011;56378;52.404;20.816;2022-10-24T05:01:47;33.20;;;19.00;;
69260;SDS011;56378;52.404;20.816;2022-10-24T05:04:12;36.17;;;18.38;;
69260;SDS011;56378;52.404;20.816;2022-10-24T05:06:38;36.03;;;19.37;;
69260;SDS011;56378;52.404;20.816;2022-10-24T05:09:04;33.28;;;18.13;;
69260;SDS011;56378;52.404;20.816;2022-10-24T05:11:30;32.40;;;18.07;;
69260;SDS011;56378;52.404;20.816;2022-10-24T05:13:57;32.35;;;17.67;;
69260;SDS011;56378;52.404;20.816;2022-10-24T05:16:23;32.90;;;19.05;;
69260;SDS011;56378;52.404;20.816;2022-10-24T05:18:48;42.33;;;23.03;;
69260;SDS011;56378;52.404;20.816;2022-10-24T05:21:14;52.72;;;26.95;;
69260;SDS011;56378;52.404;20.816;2022-10-24T05:23:40;45.25;;;23.42;;
69260;SDS011;56378;52.404;20.816;2022-10-24T05:26:06;43.13;;;25.03;;
69260;SDS011;56378;52.404;20.816;2022-10-24T05:28:31;40.97;;;21.80;;
69260;SDS011;56378;52.404;20.816;2022-10-24T05:30:58;38.40;;;22.83;;
69260;SDS011;56378;52.404;20.816;2022-10-24T05:33:24;38.50;;;20.83;;
69260;SDS011;56378;52.404;20.816;2022-10-24T05:35:50;40.42;;;22.00;;
69260;SDS011;56378;52.404;20.816;2022-10-24T05:38:17;34.60;;;20.35;;
69260;SDS011;56378;52.404;20.816;2022-10-24T05:40:43;35.47;;;19.23;;
69260;SDS011;56378;52.404;20.816;2022-10-24T05:43:14;35.47;;;19.35;;
69260;SDS011;56378;52.404;20.816;2022-10-24T05:45:41;39.45;;;20.23;;
69260;SDS011;56378;52.404;20.816;2022-10-24T05:48:07;37.10;;;19.33;;
69260;SDS011;56378;52.404;20.816;2022-10-24T05:50:33;48.50;;;24.77;;
69260;SDS011;56378;52.404;20.816;2022-10-24T05:52:59;50.28;;;27.88;;
69260;SDS011;56378;52.404;20.816;2022-10-24T05:55:25;44.55;;;25.52;;
69260;SDS011;56378;52.404;20.816;2022-10-24T05:57:51;40.85;;;20.60;;
69260;SDS011;56378;52.404;20.816;2022-10-24T06:00:16;37.03;;;19.00;;
69260;SDS011;56378;52.404;20.816;2022-10-24T06:02:43;36.75;;;20.27;;
69260;SDS011;56378;52.404;20.816;2022-10-24T06:05:10;38.20;;;19.40;;
69260;SDS011;56378;52.404;20.816;2022-10-24T06:07:37;37.38;;;19.58;;
69260;SDS011;56378;52.404;20.816;2022-10-24T06:10:09;36.03;;;18.83;;
69260;SDS011;56378;52.404;20.816;2022-10-24T06:12:35;32.85;;;18.60;;
69260;SDS011;56378;52.404;20.816;2022-10-24T06:15:02;33.13;;;19.27;;
69260;SDS011;56378;52.404;20.816;2022-10-24T06:17:30;41.28;;;24.55;;
69260;SDS011;56378;52.404;20.816;2022-10-24T06:19:55;36.13;;;20.33;;
69260;SDS011;56378;52.404;20.816;2022-10-24T06:22:21;37.05;;;20.33;;
69260;SDS011;56378;52.404;20.816;2022-10-24T06:24:52;38.38;;;19.95;;
69260;SDS011;56378;52.404;20.816;2022-10-24T06:27:17;37.20;;;20.27;;
69260;SDS011;56378;52.404;20.816;2022-10-24T06:29:43;38.97;;;22.63;;
69260;SDS011;56378;52.404;20.816;2022-10-24T06:32:09;37.08;;;20.15;;
69260;SDS011;56378;52.404;20.816;2022-10-24T06:34:35;37.43;;;20.80;;
69260;SDS011;56378;52.404;20.816;2022-10-24T06:37:02;40.92;;;21.88;;
69260;SDS011;56378;52.404;20.816;2022-10-24T06:39:28;45.10;;;23.77;;
69260;SDS011;56378;52.404;20.816;2022-10-24T06:41:54;48.73;;;23.60;;
69260;SDS011;56378;52.404;20.816;2022-10-24T06:44:20;45.60;;;23.20;;
69260;SDS011;56378;52.404;20.816;2022-10-24T06:46:45;43.93;;;21.87;;
69260;SDS011;56378;52.404;20.816;2022-10-24T06:49:12;39.78;;;22.02;;
69260;SDS011;56378;52.404;20.816;2022-10-24T06:51:38;40.80;;;21.35;;
69260;SDS011;56378;52.404;20.816;2022-10-24T06:54:04;38.47;;;19.90;;
69260;SDS011;56378;52.404;20.816;2022-10-24T06:56:31;37.38;;;18.80;;
69260;SDS011;56378;52.404;20.816;2022-10-24T06:58:56;34.88;;;19.42;;
69260;SDS011;56378;52.404;20.816;2022-10-24T07:01:22;36.23;;;19.03;;
69260;SDS011;56378;52.404;20.816;2022-10-24T07:03:50;36.47;;;19.92;;
69260;SDS011;56378;52.404;20.816;2022-10-24T07:08:43;42.87;;;23.40;;
69260;SDS011;56378;52.404;20.816;2022-10-24T07:11:09;41.88;;;22.27;;
69260;SDS011;56378;52.404;20.816;2022-10-24T07:13:36;43.95;;;22.00;;
69260;SDS011;56378;52.404;20.816;2022-10-24T07:16:03;35.30;;;20.70;;
69260;SDS011;56378;52.404;20.816;2022-10-24T07:18:29;34.70;;;18.98;;
69260;SDS011;56378;52.404;20.816;2022-10-24T07:20:59;34.23;;;19.30;;
69260;SDS011;56378;52.404;20.816;2022-10-24T07:23:32;38.47;;;20.38;;
69260;SDS011;56378;52.404;20.816;2022-10-24T07:26:10;35.75;;;19.80;;
69260;SDS011;56378;52.404;20.816;2022-10-24T07:28:39;41.63;;;21.90;;
69260;SDS011;56378;52.404;20.816;2022-10-24T07:31:05;86.22;;;41.08;;
69260;SDS011;56378;52.404;20.816;2022-10-24T07:33:32;43.67;;;23.83;;
69260;SDS011;56378;52.404;20.816;2022-10-24T07:35:59;40.47;;;20.30;;
69260;SDS011;56378;52.404;20.816;2022-10-24T07:38:25;39.63;;;22.25;;
69260;SDS011;56378;52.404;20.816;2022-10-24T07:40:51;41.13;;;23.20;;
69260;SDS011;56378;52.404;20.816;2022-10-24T07:43:16;44.88;;;25.98;;
69260;SDS011;56378;52.404;20.816;2022-10-24T07:45:43;51.50;;;27.63;;
69260;SDS011;56378;52.404;20.816;2022-10-24T07:48:08;37.10;;;20.90;;
69260;SDS011;56378;52.404;20.816;2022-10-24T07:50:39;32.92;;;18.23;;
69260;SDS011;56378;52.404;20.816;2022-10-24T07:53:07;35.15;;;18.90;;
69260;SDS011;56378;52.404;20.816;2022-10-24T07:55:36;32.38;;;18.00;;
69260;SDS011;56378;52.404;20.816;2022-10-24T07:58:03;30.97;;;16.97;;
69260;SDS011;56378;52.404;20.816;2022-10-24T08:00:28;33.47;;;17.08;;
69260;SDS011;56378;52.404;20.816;2022-10-24T08:02:54;30.43;;;17.43;;
69260;SDS011;56378;52.404;20.816;2022-10-24T08:05:20;36.33;;;19.50;;
69260;SDS011;56378;52.404;20.816;2022-10-24T08:07:45;31.67;;;18.03;;
69260;SDS011;56378;52.404;20.816;2022-10-24T08:10:12;33.50;;;17.48;;
69260;SDS011;56378;52.404;20.816;2022-10-24T08:12:38;39.92;;;21.67;;
69260;SDS011;56378;52.404;20.816;2022-10-24T08:15:04;35.03;;;18.75;;
69260;SDS011;56378;52.404;20.816;2022-10-24T08:17:30;30.17;;;18.02;;
69260;SDS011;56378;52.404;20.816;2022-10-24T08:19:56;31.20;;;17.97;;
69260;SDS011;56378;52.404;20.816;2022-10-24T08:22:22;32.90;;;17.10;;
69260;SDS011;56378;52.404;20.816;2022-10-24T08:24:47;31.13;;;17.70;;
69260;SDS011;56378;52.404;20.816;2022-10-24T08:27:13;30.45;;;16.35;;
69260;SDS011;56378;52.404;20.816;2022-10-24T08:29:39;34.20;;;18.60;;
69260;SDS011;56378;52.404;20.816;2022-10-24T08:32:04;29.10;;;16.75;;
69260;SDS011;56378;52.404;20.816;2022-10-24T08:34:31;30.33;;;16.43;;
69260;SDS011;56378;52.404;20.816;2022-10-24T08:36:57;32.67;;;16.10;;
69260;SDS011;56378;52.404;20.816;2022-10-24T08:39:23;32.63;;;16.15;;
69260;SDS011;56378;52.404;20.816;2022-10-24T08:41:50;31.20;;;17.60;;
69260;SDS011;56378;52.404;20.816;2022-10-24T08:44:35;28.52;;;14.95;;
69260;SDS011;56378;52.404;20.816;2022-10-24T08:54:57;29.85;;;17.02;;
69260;SDS011;56378;52.404;20.816;2022-10-24T08:57:28;30.20;;;15.75;;
69260;SDS011;56378;52.404;20.816;2022-10-24T08:59:57;25.90;;;15.33;;
69260;SDS011;56378;52.404;20.816;2022-10-24T09:02:29;29.95;;;16.00;;
69260;SDS011;56378;52.404;20.816;2022-10-24T09:05:00;35.17;;;18.95;;
69260;SDS011;56378;52.404;20.816;2022-10-24T09:07:42;38.85;;;19.20;;
69260;SDS011;56378;52.404;20.816;2022-10-24T09:10:18;34.72;;;19.38;;
69260;SDS011;56378;52.404;20.816;2022-10-24T09:12:48;40.03;;;20.53;;
69260;SDS011;56378;52.404;20.816;2022-10-24T09:15:21;33.03;;;17.02;;
69260;SDS011;56378;52.404;20.816;2022-10-24T09:17:51;30.33;;;16.92;;
69260;SDS011;56378;52.404;20.816;2022-10-24T09:20:22;26.33;;;14.80;;
69260;SDS011;56378;52.404;20.816;2022-10-24T09:22:49;31.80;;;17.33;;
69260;SDS011;56378;52.404;20.816;2022-10-24T09:25:19;27.23;;;15.80;;
69260;SDS011;56378;52.404;20.816;2022-10-24T09:27:47;27.88;;;15.85;;
69260;SDS011;56378;52.404;20.816;2022-10-24T09:30:15;22.55;;;13.90;;
69260;SDS011;56378;52.404;20.816;2022-10-24T09:32:45;26.05;;;14.25;;
69260;SDS011;56378;52.404;20.816;2022-10-24T09:35:22;25.00;;;14.43;;
69260;SDS011;56378;52.404;20.816;2022-10-24T09:37:51;26.25;;;13.77;;
69260;SDS011;56378;52.404;20.816;2022-10-24T09:40:22;26.27;;;14.23;;
69260;SDS011;56378;52.404;20.816;2022-10-24T09:42:50;26.67;;;14.35;;
69260;SDS011;56378;52.404;20.816;2022-10-24T09:45:42;24.05;;;13.63;;
69260;SDS011;56378;52.404;20.816;2022-10-24T09:48:16;21.57;;;13.23;;
69260;SDS011;56378;52.404;20.816;2022-10-24T09:50:52;23.85;;;13.65;;
69260;SDS011;56378;52.404;20.816;2022-10-24T09:53:29;25.90;;;12.93;;
69260;SDS011;56378;52.404;20.816;2022-10-24T09:55:59;21.77;;;12.68;;
69260;SDS011;56378;52.404;20.816;2022-10-24T09:58:31;22.67;;;13.68;;
69260;SDS011;56378;52.404;20.816;2022-10-24T10:03:32;25.38;;;13.65;;
69260;SDS011;56378;52.404;20.816;2022-10-24T10:06:03;22.05;;;12.45;;
69260;SDS011;56378;52.404;20.816;2022-10-24T10:08:40;22.55;;;12.75;;
69260;SDS011;56378;52.404;20.816;2022-10-24T10:11:12;21.20;;;12.57;;
69260;SDS011;56378;52.404;20.816;2022-10-24T10:13:45;23.33;;;12.63;;
69260;SDS011;56378;52.404;20.816;2022-10-24T10:16:20;27.55;;;14.40;;
69260;SDS011;56378;52.404;20.816;2022-10-24T10:19:05;22.27;;;13.13;;
69260;SDS011;56378;52.404;20.816;2022-10-24T10:24:38;22.95;;;13.32;;
69260;SDS011;56378;52.404;20.816;2022-10-24T10:35:23;23.87;;;12.13;;
69260;SDS011;56378;52.404;20.816;2022-10-24T10:41:44;21.35;;;11.90;;
69260;SDS011;56378;52.404;20.816;2022-10-24T10:49:47;20.10;;;11.90;;
69260;SDS011;56378;52.404;20.816;2022-10-24T10:58:01;25.38;;;12.45;;
69260;SDS011;56378;52.404;20.816;2022-10-24T11:06:52;21.05;;;11.23;;
69260;SDS011;56378;52.404;20.816;2022-10-24T11:09:32;18.98;;;10.85;;
69260;SDS011;56378;52.404;20.816;2022-10-24T11:15:01;19.15;;;11.40;;
69260;SDS011;56378;52.404;20.816;2022-10-24T11:17:36;19.77;;;11.37;;
69260;SDS011;56378;52.404;20.816;2022-10-24T11:20:17;21.75;;;11.25;;
69260;SDS011;56378;52.404;20.816;2022-10-24T11:23:01;20.83;;;11.65;;
69260;SDS011;56378;52.404;20.816;2022-10-24T11:25:45;19.58;;;10.68;;
69260;SDS011;56378;52.404;20.816;2022-10-24T11:33:34;26.10;;;11.13;;
69260;SDS011;56378;52.404;20.816;2022-10-24T11:38:39;18.92;;;10.50;;
69260;SDS011;56378;52.404;20.816;2022-10-24T11:44:15;17.13;;;10.23;;
69260;SDS011;56378;52.404;20.816;2022-10-24T11:46:43;18.15;;;10.00;;
69260;SDS011;56378;52.404;20.816;2022-10-24T11:49:52;22.33;;;9.85;;
69260;SDS011;56378;52.404;20.816;2022-10-24T11:54:41;17.00;;;9.75;;
69260;SDS011;56378;52.404;20.816;2022-10-24T11:57:29;16.77;;;9.80;;
69260;SDS011;56378;52.404;20.816;2022-10-24T11:59:56;16.70;;;9.85;;
69260;SDS011;56378;52.404;20.816;2022-10-24T12:19:33;15.65;;;8.45;;
69260;SDS011;56378;52.404;20.816;2022-10-24T12:22:02;16.63;;;8.32;;
69260;SDS011;56378;52.404;20.816;2022-10-24T12:24:30;14.63;;;8.30;;
69260;SDS011;56378;52.404;20.816;2022-10-24T12:27:01;16.83;;;8.85;;
69260;SDS011;56378;52.404;20.816;2022-10-24T12:29:31;13.98;;;7.75;;
69260;SDS011;56378;52.404;20.816;2022-10-24T12:31:59;13.23;;;7.78;;
69260;SDS011;56378;52.404;20.816;2022-10-24T12:34:46;16.98;;;7.32;;
69260;SDS011;56378;52.404;20.816;2022-10-24T12:39:50;14.07;;;7.53;;
69260;SDS011;56378;52.404;20.816;2022-10-24T12:47:46;15.43;;;7.53;;
69260;SDS011;56378;52.404;20.816;2022-10-24T12:53:17;15.77;;;7.65;;
69260;SDS011;56378;52.404;20.816;2022-10-24T12:56:04;14.57;;;7.33;;
69260;SDS011;56378;52.404;20.816;2022-10-24T12:58:39;15.65;;;7.38;;
69260;SDS011;56378;52.404;20.816;2022-10-24T13:01:09;14.90;;;8.10;;
69260;SDS011;56378;52.404;20.816;2022-10-24T13:06:50;18.98;;;9.23;;
69260;SDS011;56378;52.404;20.816;2022-10-24T13:20:29;14.98;;;7.20;;
69260;SDS011;56378;52.404;20.816;2022-10-24T13:23:25;17.57;;;7.57;;
69260;SDS011;56378;52.404;20.816;2022-10-24T13:25:56;13.25;;;7.13;;
69260;SDS011;56378;52.404;20.816;2022-10-24T13:41:31;16.80;;;8.10;;
69260;SDS011;56378;52.404;20.816;2022-10-24T13:44:02;13.47;;;7.50;;
69260;SDS011;56378;52.404;20.816;2022-10-24T13:49:21;13.50;;;7.05;;
69260;SDS011;56378;52.404;20.816;2022-10-24T13:52:02;15.15;;;7.30;;
69260;SDS011;56378;52.404;20.816;2022-10-24T13:54:44;13.43;;;6.95;;
69260;SDS011;56378;52.404;20.816;2022-10-24T13:57:26;14.50;;;7.67;;
69260;SDS011;56378;52.404;20.816;2022-10-24T13:59:54;13.73;;;7.85;;
69260;SDS011;56378;52.404;20.816;2022-10-24T14:02:23;14.15;;;7.82;;
69260;SDS011;56378;52.404;20.816;2022-10-24T14:04:52;12.85;;;7.13;;
69260;SDS011;56378;52.404;20.816;2022-10-24T14:07:19;11.75;;;7.18;;
69260;SDS011;56378;52.404;20.816;2022-10-24T14:09:58;15.47;;;7.50;;
69260;SDS011;56378;52.404;20.816;2022-10-24T14:12:31;13.82;;;8.02;;
69260;SDS011;56378;52.404;20.816;2022-10-24T14:14:57;12.77;;;7.07;;
69260;SDS011;56378;52.404;20.816;2022-10-24T14:17:27;12.27;;;7.28;;
69260;SDS011;56378;52.404;20.816;2022-10-24T14:19:59;13.30;;;7.70;;
69260;SDS011;56378;52.404;20.816;2022-10-24T14:22:35;13.10;;;7.03;;
69260;SDS011;56378;52.404;20.816;2022-10-24T14:25:05;13.48;;;7.45;;
69260;SDS011;56378;52.404;20.816;2022-10-24T14:27:45;14.13;;;8.25;;
69260;SDS011;56378;52.404;20.816;2022-10-24T14:30:15;14.02;;;7.25;;
69260;SDS011;56378;52.404;20.816;2022-10-24T14:32:43;14.03;;;7.50;;
69260;SDS011;56378;52.404;20.816;2022-10-24T14:35:12;13.15;;;7.47;;
69260;SDS011;56378;52.404;20.816;2022-10-24T14:37:39;11.75;;;7.03;;
69260;SDS011;56378;52.404;20.816;2022-10-24T14:40:10;13.23;;;6.90;;
69260;SDS011;56378;52.404;20.816;2022-10-24T14:42:41;15.63;;;8.00;;
69260;SDS011;56378;52.404;20.816;2022-10-24T14:45:24;16.53;;;7.03;;
69260;SDS011;56378;52.404;20.816;2022-10-24T14:47:53;13.88;;;7.15;;
69260;SDS011;56378;52.404;20.816;2022-10-24T14:52:58;15.32;;;7.35;;
69260;SDS011;56378;52.404;20.816;2022-10-24T14:55:25;11.60;;;6.90;;
69260;SDS011;56378;52.404;20.816;2022-10-24T14:57:51;17.90;;;7.33;;
69260;SDS011;56378;52.404;20.816;2022-10-24T15:00:21;11.35;;;6.55;;
69260;SDS011;56378;52.404;20.816;2022-10-24T15:02:50;16.83;;;7.97;;
69260;SDS011;56378;52.404;20.816;2022-10-24T15:07:43;15.07;;;8.30;;
69260;SDS011;56378;52.404;20.816;2022-10-24T15:12:45;15.20;;;8.37;;
69260;SDS011;56378;52.404;20.816;2022-10-24T15:18:13;17.60;;;8.85;;
69260;SDS011;56378;52.404;20.816;2022-10-24T15:20:41;15.48;;;8.27;;
69260;SDS011;56378;52.404;20.816;2022-10-24T15:23:53;16.27;;;8.93;;
69260;SDS011;56378;52.404;20.816;2022-10-24T15:26:15;16.58;;;9.55;;
69260;SDS011;56378;52.404;20.816;2022-10-24T15:28:48;25.48;;;12.88;;
69260;SDS011;56378;52.404;20.816;2022-10-24T15:31:18;21.10;;;12.52;;
69260;SDS011;56378;52.404;20.816;2022-10-24T15:33:44;20.42;;;11.60;;
69260;SDS011;56378;52.404;20.816;2022-10-24T15:36:21;17.20;;;9.90;;
69260;SDS011;56378;52.404;20.816;2022-10-24T15:38:49;17.63;;;8.90;;
69260;SDS011;56378;52.404;20.816;2022-10-24T15:41:21;15.52;;;8.70;;
69260;SDS011;56378;52.404;20.816;2022-10-24T15:43:46;16.20;;;7.57;;
69260;SDS011;56378;52.404;20.816;2022-10-24T15:46:12;18.17;;;9.40;;
69260;SDS011;56378;52.404;20.816;2022-10-24T15:48:38;21.05;;;9.98;;
69260;SDS011;56378;52.404;20.816;2022-10-24T15:51:04;21.60;;;12.17;;
69260;SDS011;56378;52.404;20.816;2022-10-24T15:53:30;22.13;;;12.90;;
69260;SDS011;56378;52.404;20.816;2022-10-24T15:55:56;22.10;;;12.45;;
69260;SDS011;56378;52.404;20.816;2022-10-24T15:58:21;22.43;;;10.73;;
69260;SDS011;56378;52.404;20.816;2022-10-24T16:00:47;18.50;;;10.35;;
69260;SDS011;56378;52.404;20.816;2022-10-24T16:03:16;16.83;;;9.70;;
69260;SDS011;56378;52.404;20.816;2022-10-24T16:05:46;19.73;;;9.63;;
69260;SDS011;56378;52.404;20.816;2022-10-24T16:08:17;17.85;;;9.05;;
69260;SDS011;56378;52.404;20.816;2022-10-24T16:13:14;23.38;;;9.25;;
69260;SDS011;56378;52.404;20.816;2022-10-24T16:15:41;19.77;;;10.77;;
69260;SDS011;56378;52.404;20.816;2022-10-24T16:18:08;28.30;;;14.10;;
69260;SDS011;56378;52.404;20.816;2022-10-24T16:20:34;24.95;;;12.13;;
69260;SDS011;56378;52.404;20.816;2022-10-24T16:23:00;24.52;;;11.95;;
69260;SDS011;56378;52.404;20.816;2022-10-24T16:25:30;23.17;;;11.27;;
69260;SDS011;56378;52.404;20.816;2022-10-24T16:27:58;24.17;;;12.20;;
69260;SDS011;56378;52.404;20.816;2022-10-24T16:30:30;25.10;;;11.70;;
69260;SDS011;56378;52.404;20.816;2022-10-24T16:32:56;22.48;;;12.13;;
69260;SDS011;56378;52.404;20.816;2022-10-24T16:35:23;22.58;;;11.80;;
69260;SDS011;56378;52.404;20.816;2022-10-24T16:37:51;22.83;;;11.55;;
69260;SDS011;56378;52.404;20.816;2022-10-24T16:40:18;23.63;;;11.97;;
69260;SDS011;56378;52.404;20.816;2022-10-24T16:42:46;26.88;;;12.10;;
69260;SDS011;56378;52.404;20.816;2022-10-24T16:45:16;33.05;;;14.75;;
69260;SDS011;56378;52.404;20.816;2022-10-24T16:47:42;29.88;;;14.77;;
69260;SDS011;56378;52.404;20.816;2022-10-24T16:50:12;25.20;;;13.52;;
69260;SDS011;56378;52.404;20.816;2022-10-24T16:52:40;22.73;;;12.57;;
69260;SDS011;56378;52.404;20.816;2022-10-24T16:55:05;20.27;;;11.98;;
69260;SDS011;56378;52.404;20.816;2022-10-24T16:57:32;20.77;;;11.77;;
69260;SDS011;56378;52.404;20.816;2022-10-24T16:59:57;23.43;;;13.47;;
69260;SDS011;56378;52.404;20.816;2022-10-24T17:02:23;29.05;;;13.80;;
69260;SDS011;56378;52.404;20.816;2022-10-24T17:04:48;28.50;;;15.23;;